Time;durP1;ratioP1;P1;durP2;ratioP2;P2;SDS_P1;SDS_P2;PMS_P1;PMS_P2;Temp;Humidity;BMP_temperature;BMP_pressure;BME280_temperature;BME280_humidity;BME280_pressure;Samples;Min_cycle;Max_cycle;Signal;HPM_P1;HPM_P2
2020/12/07 00:00:08;;;;;;;37.22;25.80;;;;;;;5.36;83.78;99658.38;10131468;28;20417;-78
2020/12/07 00:05:05;;;;;;;37.97;25.20;;;;;;;5.35;83.24;99645.94;10113667;28;20144;-78
2020/12/07 00:10:03;;;;;;;38.70;24.67;;;;;;;5.45;83.51;99664.66;10130803;28;20054;-78
2020/12/07 00:14:59;;;;;;;41.58;26.42;;;;;;;5.40;83.44;99659.34;10121750;28;20513;-78
2020/12/07 00:19:55;;;;;;;41.00;24.67;;;;;;;5.26;83.48;99657.50;10133724;28;20520;-79
2020/12/07 00:24:52;;;;;;;45.92;26.92;;;;;;;5.23;83.98;99668.97;10126617;28;20590;-79
2020/12/07 00:29:51;;;;;;;36.90;23.67;;;;;;;5.32;83.66;99677.19;10119104;28;20058;-79
2020/12/07 00:34:48;;;;;;;40.25;25.17;;;;;;;5.18;84.19;99676.44;10114196;28;20389;-79
2020/12/07 00:39:45;;;;;;;38.28;24.20;;;;;;;5.18;84.33;99663.69;10120827;28;20412;-82
2020/12/07 00:44:42;;;;;;;40.92;23.90;;;;;;;5.18;83.79;99660.97;10127283;28;20057;-78
2020/12/07 00:49:39;;;;;;;46.50;27.23;;;;;;;5.18;84.61;99654.75;10124382;28;20483;-79
2020/12/07 00:54:36;;;;;;;39.03;23.85;;;;;;;5.19;83.92;99646.28;10122058;28;20141;-79
2020/12/07 00:59:32;;;;;;;39.03;23.30;;;;;;;5.15;83.82;99639.91;10123475;28;20113;-83
2020/12/07 01:04:30;;;;;;;42.03;26.08;;;;;;;5.12;83.73;99623.47;10120904;28;20081;-79
2020/12/07 01:09:26;;;;;;;33.63;22.13;;;;;;;5.12;83.69;99615.34;10121144;28;20519;-78
2020/12/07 01:14:23;;;;;;;37.97;23.77;;;;;;;5.06;83.49;99612.75;10125282;28;20142;-81
2020/12/07 01:19:20;;;;;;;39.00;24.83;;;;;;;4.96;84.16;99628.44;10111801;28;20051;-79
2020/12/07 01:24:16;;;;;;;39.38;23.63;;;;;;;4.98;84.82;99618.88;10122970;28;20407;-78
2020/12/07 01:29:13;;;;;;;36.17;23.13;;;;;;;4.93;85.22;99616.31;10121279;28;20114;-79
2020/12/07 01:34:09;;;;;;;38.60;24.13;;;;;;;5.01;85.59;99620.19;10116293;28;20055;-78
2020/12/07 01:39:07;;;;;;;39.42;23.98;;;;;;;5.04;85.76;99606.03;10113427;28;20059;-81
2020/12/07 01:44:03;;;;;;;35.40;23.15;;;;;;;5.27;85.71;99613.06;10135803;28;20059;-79
2020/12/07 01:48:59;;;;;;;37.35;23.30;;;;;;;5.33;85.71;99607.50;10123180;28;20050;-79
2020/12/07 01:53:56;;;;;;;33.10;23.10;;;;;;;5.31;86.18;99615.94;10123537;28;20054;-79
2020/12/07 01:58:53;;;;;;;34.85;23.67;;;;;;;5.44;85.65;99581.72;10127132;28;20054;-78
2020/12/07 02:03:49;;;;;;;36.15;23.90;;;;;;;5.51;85.55;99609.19;10124352;28;20400;-77
2020/12/07 02:08:51;;;;;;;31.10;21.23;;;;;;;5.55;85.11;99572.22;10129813;28;20069;-79
2020/12/07 02:13:47;;;;;;;31.88;21.73;;;;;;;5.58;85.51;99592.50;10146460;28;20137;-79
2020/12/07 02:18:44;;;;;;;31.08;21.05;;;;;;;5.65;84.92;99571.94;10118198;28;20454;-79
2020/12/07 02:23:40;;;;;;;30.98;21.02;;;;;;;5.72;84.84;99576.13;10126834;28;20078;-79
2020/12/07 02:28:36;;;;;;;27.55;19.42;;;;;;;5.78;84.94;99596.53;10121589;28;20468;-79
2020/12/07 02:33:33;;;;;;;36.22;22.20;;;;;;;5.79;84.93;99581.88;10137127;28;20105;-79
2020/12/07 02:38:29;;;;;;;29.85;19.98;;;;;;;5.78;84.94;99591.13;10127137;28;20065;-78
2020/12/07 02:43:25;;;;;;;29.83;20.73;;;;;;;5.83;84.64;99589.09;10127208;28;20058;-80
2020/12/07 02:48:21;;;;;;;32.30;22.63;;;;;;;5.75;85.23;99575.47;10121138;28;20050;-79
2020/12/07 02:53:17;;;;;;;29.20;20.05;;;;;;;5.83;85.10;99574.72;10135752;28;20059;-78
2020/12/07 02:58:13;;;;;;;29.88;20.23;;;;;;;5.88;85.49;99564.53;10123686;28;20069;-79
2020/12/07 03:03:09;;;;;;;29.15;21.17;;;;;;;5.86;85.53;99544.25;10145501;28;20137;-79
2020/12/07 03:08:05;;;;;;;27.10;18.70;;;;;;;5.92;85.28;99532.16;10108726;28;20081;-81
2020/12/07 03:13:02;;;;;;;27.08;18.20;;;;;;;5.94;85.53;99535.38;10146181;28;20062;-80
2020/12/07 03:17:58;;;;;;;30.10;20.92;;;;;;;5.81;85.77;99552.53;10111898;28;20133;-80
2020/12/07 03:22:54;;;;;;;27.58;18.25;;;;;;;5.91;85.94;99541.38;10130711;28;20081;-79
2020/12/07 03:27:50;;;;;;;28.38;18.63;;;;;;;5.96;85.06;99522.28;10122628;28;20595;-80
2020/12/07 03:32:46;;;;;;;24.52;17.77;;;;;;;6.02;84.91;99504.75;10146096;28;20065;-80
2020/12/07 03:37:42;;;;;;;24.08;17.45;;;;;;;5.99;85.21;99510.81;10126586;28;20128;-81
2020/12/07 03:42:38;;;;;;;23.92;17.20;;;;;;;5.97;85.48;99491.31;10129596;28;20061;-82
2020/12/07 03:47:35;;;;;;;27.25;17.88;;;;;;;5.94;85.62;99491.97;10125745;28;20046;-80
2020/12/07 03:52:32;;;;;;;26.25;17.50;;;;;;;6.04;85.57;99480.81;10129518;28;20099;-82
2020/12/07 03:57:28;;;;;;;25.98;17.98;;;;;;;6.08;85.51;99500.75;10119647;28;21500;-81
2020/12/07 04:02:24;;;;;;;26.10;16.77;;;;;;;6.09;85.07;99505.06;10132419;28;20427;-80
2020/12/07 04:07:21;;;;;;;25.38;17.73;;;;;;;6.08;85.45;99503.47;10123986;28;20054;-80
2020/12/07 04:12:18;;;;;;;24.42;17.45;;;;;;;6.09;85.46;99494.22;10138356;28;20141;-80
2020/12/07 04:17:15;;;;;;;24.98;16.60;;;;;;;6.08;85.08;99487.19;10120999;28;20455;-80
2020/12/07 04:22:11;;;;;;;24.20;16.67;;;;;;;6.09;84.93;99488.78;10125282;28;20069;-82
2020/12/07 04:27:07;;;;;;;24.55;17.15;;;;;;;6.04;85.24;99502.50;10117159;28;20423;-78
2020/12/07 04:32:06;;;;;;;28.75;18.52;;;;;;;6.04;85.30;99497.09;10142510;28;20047;-82
2020/12/07 04:37:04;;;;;;;24.23;17.33;;;;;;;6.08;85.42;99503.47;10141389;28;20046;-84
2020/12/07 04:42:02;;;;;;;24.45;16.95;;;;;;;6.09;85.05;99499.63;10151560;28;20133;-83
2020/12/07 04:46:59;;;;;;;26.48;18.30;;;;;;;6.11;85.43;99502.84;10123868;28;20137;-80
2020/12/07 04:51:57;;;;;;;23.48;16.88;;;;;;;6.11;85.36;99508.25;10140091;28;20061;-81
2020/12/07 04:56:57;;;;;;;25.85;17.85;;;;;;;6.07;85.42;99501.88;10115675;28;20142;-77
2020/12/07 05:01:53;;;;;;;25.35;16.75;;;;;;;6.20;85.02;99499.34;10124730;28;20061;-76
2020/12/07 05:07:06;;;;;;;24.92;16.13;;;;;;;6.24;84.82;99500.28;10119051;28;20184;-77
2020/12/07 05:12:10;;;;;;;24.42;15.68;;;;;;;6.34;84.46;99491.84;10124579;28;20059;-78
2020/12/07 05:17:06;;;;;;;24.08;16.75;;;;;;;6.32;84.51;99464.22;10118896;28;20062;-77
2020/12/07 05:22:13;;;;;;;22.15;15.07;;;;;;;6.35;84.38;99451.91;10125775;28;20062;-77
2020/12/07 05:27:49;;;;;;;23.88;15.63;;;;;;;6.37;84.59;99466.75;10116817;28;20059;-77
2020/12/07 05:32:47;;;;;;;21.13;13.73;;;;;;;6.45;84.27;99479.56;10125387;28;20445;-77
2020/12/07 05:37:43;;;;;;;22.38;14.95;;;;;;;6.48;84.40;99495.19;10123783;28;20065;-80
2020/12/07 05:42:41;;;;;;;23.67;15.98;;;;;;;6.46;84.64;99481.13;10138064;28;20734;-80
2020/12/07 05:47:39;;;;;;;20.77;14.15;;;;;;;6.58;83.67;99471.53;10121518;28;20069;-78
2020/12/07 05:53:03;;;;;;;20.92;14.50;;;;;;;6.61;83.76;99465.47;10133106;28;20137;-80
2020/12/07 05:58:23;;;;;;;23.42;14.60;;;;;;;6.56;83.68;99452.84;10124140;28;20051;-84
2020/12/07 06:03:20;;;;;;;25.38;14.57;;;;;;;6.58;83.41;99441.66;10133007;28;20130;-82
2020/12/07 06:08:44;;;;;;;22.33;14.00;;;;;;;6.58;83.09;99476.97;10135092;28;20054;-81
2020/12/07 06:13:42;;;;;;;20.88;14.13;;;;;;;6.58;83.31;99466.91;10130523;28;20472;-79
2020/12/07 06:18:43;;;;;;;20.77;13.48;;;;;;;6.70;83.12;99474.41;10137155;28;20065;-79
2020/12/07 06:23:44;;;;;;;21.38;13.27;;;;;;;6.70;82.76;99463.53;10134772;28;20058;-78
2020/12/07 06:28:46;;;;;;;22.95;14.10;;;;;;;6.65;82.95;99444.69;10140746;28;20046;-83
2020/12/07 06:33:47;;;;;;;21.67;13.25;;;;;;;6.78;82.18;99453.75;10147272;28;20050;-82
2020/12/07 06:38:48;;;;;;;22.60;13.98;;;;;;;6.76;82.17;99461.47;10131903;28;20384;-81
2020/12/07 06:44:34;;;;;;;21.05;14.10;;;;;;;6.75;82.15;99455.22;10124766;28;20054;-80
2020/12/07 06:55:20;;;;;;;21.55;13.38;;;;;;;6.80;81.52;99463.22;10134761;28;20073;-86
2020/12/07 07:21:07;;;;;;;19.15;13.50;;;;;;;6.89;80.39;99493.88;9373335;23;20042;-81
2020/12/07 07:26:51;;;;;;;21.40;12.93;;;;;;;6.98;80.55;99493.03;10114097;28;20558;-80
2020/12/07 07:31:40;;;;;;;22.67;13.88;;;;;;;6.97;80.20;99489.53;10101861;28;20100;-82
2020/12/07 07:36:39;;;;;;;22.88;13.57;;;;;;;6.99;79.94;99487.28;10106603;28;20839;-85
2020/12/07 07:41:38;;;;;;;23.88;14.38;;;;;;;6.95;79.76;99494.50;10086112;28;20114;-85
2020/12/07 07:46:37;;;;;;;22.60;13.75;;;;;;;7.00;79.88;99504.38;10086241;28;20061;-81
2020/12/07 08:17:53;;;;;;;26.65;14.10;;;;;;;7.02;79.90;99510.31;10110766;28;20423;-80
2020/12/07 08:23:01;;;;;;;22.38;13.60;;;;;;;7.08;79.75;99522.63;10088332;28;20141;-80
2020/12/07 08:27:57;;;;;;;21.35;13.23;;;;;;;7.12;79.46;99531.69;10079543;28;20055;-84
2020/12/07 08:32:53;;;;;;;25.90;14.63;;;;;;;7.11;79.56;99532.84;10088301;28;20162;-81
2020/12/07 08:37:49;;;;;;;21.05;13.63;;;;;;;7.13;79.43;99531.38;10084049;28;20058;-81
2020/12/07 08:42:45;;;;;;;21.50;13.02;;;;;;;7.17;79.36;99542.38;10082356;28;20060;-81
2020/12/07 08:47:45;;;;;;;22.48;13.48;;;;;;;7.15;79.32;99555.53;10085591;28;20074;-81
2020/12/07 08:52:42;;;;;;;24.13;13.95;;;;;;;7.20;79.46;99538.25;10076600;28;20051;-89
2020/12/07 08:57:38;;;;;;;24.33;14.15;;;;;;;7.19;79.53;99518.41;10089348;28;20493;-79
2020/12/07 09:02:34;;;;;;;21.15;13.15;;;;;;;7.25;79.44;99532.63;10088340;28;20142;-80
2020/12/07 09:07:30;;;;;;;22.67;13.25;;;;;;;7.27;78.82;99542.06;10081286;28;21092;-80
2020/12/07 09:12:26;;;;;;;23.45;12.85;;;;;;;7.31;79.35;99559.31;10087172;28;20058;-80
2020/12/07 09:17:22;;;;;;;20.80;11.93;;;;;;;7.30;79.44;99546.84;10103542;28;20392;-80
2020/12/07 09:22:18;;;;;;;22.08;13.85;;;;;;;7.28;79.13;99549.09;10081193;28;20078;-80
2020/12/07 09:27:15;;;;;;;22.30;13.23;;;;;;;7.35;78.90;99554.81;10086338;28;20047;-81
2020/12/07 09:32:11;;;;;;;18.70;12.35;;;;;;;7.26;79.06;99566.84;10099828;28;20137;-87
2020/12/07 09:37:07;;;;;;;26.95;14.45;;;;;;;7.18;79.49;99568.47;10084519;28;20475;-80
2020/12/07 09:42:06;;;;;;;21.92;13.05;;;;;;;7.05;79.82;99562.09;10083049;28;20396;-80
2020/12/07 09:47:02;;;;;;;22.38;13.38;;;;;;;7.09;79.98;99578.56;10095959;28;20130;-81
2020/12/07 09:51:59;;;;;;;23.25;12.82;;;;;;;6.99;80.46;99595.22;10088118;28;20138;-81
2020/12/07 09:56:55;;;;;;;23.80;13.77;;;;;;;6.94;80.88;99588.03;10089127;28;20062;-80
2020/12/07 10:01:56;;;;;;;23.30;14.95;;;;;;;6.86;81.40;99581.44;10082928;28;20063;-81
2020/12/07 10:06:55;;;;;;;24.60;16.42;;;;;;;6.88;81.65;99590.09;10098572;28;20536;-81
2020/12/07 10:11:51;;;;;;;30.63;19.90;;;;;;;6.93;81.02;99586.41;10081933;28;20432;-82
2020/12/07 10:16:52;;;;;;;24.45;16.58;;;;;;;6.88;81.42;99583.84;10083889;28;20051;-81
2020/12/07 10:21:48;;;;;;;25.10;17.55;;;;;;;6.91;81.25;99584.00;10091904;28;20051;-81
2020/12/07 10:26:45;;;;;;;26.52;18.85;;;;;;;6.93;80.88;99589.91;10086942;28;20044;-81
2020/12/07 10:31:42;;;;;;;24.08;17.63;;;;;;;6.91;80.47;99584.00;10086802;28;20055;-80
2020/12/07 10:36:38;;;;;;;28.15;19.08;;;;;;;6.90;80.84;99587.84;10087752;28;20097;-81
2020/12/07 10:41:34;;;;;;;26.70;18.77;;;;;;;6.80;80.42;99588.19;10097450;28;20090;-89
2020/12/07 10:46:30;;;;;;;27.77;19.45;;;;;;;6.77;80.38;99594.22;10089871;28;20426;-79
2020/12/07 10:51:28;;;;;;;29.08;20.42;;;;;;;6.72;80.11;99614.22;10099573;28;20094;-81
2020/12/07 10:56:24;;;;;;;28.90;20.05;;;;;;;6.61;79.90;99628.41;10100981;28;20066;-81
2020/12/07 11:01:21;;;;;;;29.65;21.15;;;;;;;6.69;79.62;99616.78;10105323;28;20518;-81
2020/12/07 11:11:43;;;;;;;31.92;21.10;;;;;;;6.45;79.26;99637.03;10116103;28;20133;-81
2020/12/07 11:16:39;;;;;;;30.38;21.83;;;;;;;6.37;79.23;99661.44;10087586;28;20490;-81
2020/12/07 11:21:35;;;;;;;32.25;21.85;;;;;;;6.46;78.76;99675.84;10095185;28;20138;-83
2020/12/07 11:26:31;;;;;;;31.05;20.02;;;;;;;6.26;78.77;99672.56;10095498;28;20062;-80
2020/12/07 11:31:28;;;;;;;30.60;19.58;;;;;;;6.15;77.92;99684.03;10093021;28;20061;-80
2020/12/07 11:36:24;;;;;;;30.35;18.27;;;;;;;6.05;77.90;99675.06;10094799;28;20059;-81
2020/12/07 11:46:29;;;;;;;35.35;22.52;;;;;;;6.13;79.15;99678.13;10105199;28;20055;-80
2020/12/07 11:51:26;;;;;;;32.50;20.25;;;;;;;6.15;78.70;99665.84;10094506;28;20059;-80
2020/12/07 11:56:33;;;;;;;36.55;20.95;;;;;;;6.24;77.64;99684.88;10096888;28;20097;-80
2020/12/07 12:01:33;;;;;;;37.67;21.05;;;;;;;6.24;77.85;99684.88;10082838;28;20055;-80
2020/12/07 12:06:35;;;;;;;35.70;21.00;;;;;;;6.02;76.69;99686.53;10084398;28;20141;-82
2020/12/07 12:11:36;;;;;;;34.15;20.63;;;;;;;5.99;76.44;99695.31;10077764;28;20066;-81
2020/12/07 12:16:34;;;;;;;30.90;19.80;;;;;;;5.76;76.51;99707.28;10097374;28;20059;-80
2020/12/07 12:21:33;;;;;;;32.53;18.90;;;;;;;5.88;75.72;99710.22;10094167;28;20051;-80
2020/12/07 12:26:33;;;;;;;29.30;18.58;;;;;;;5.91;76.00;99729.38;10097302;28;20050;-80
2020/12/07 12:31:29;;;;;;;33.75;20.70;;;;;;;5.80;75.92;99733.50;10081627;28;20066;-81
2020/12/07 12:36:28;;;;;;;26.73;17.98;;;;;;;5.61;76.02;99733.66;10094550;28;20047;-80
2020/12/07 12:41:24;;;;;;;24.38;15.38;;;;;;;5.63;75.87;99736.88;10087585;28;20079;-81
2020/12/07 12:46:21;;;;;;;23.60;15.05;;;;;;;5.70;75.42;99737.22;10081735;28;20721;-81
2020/12/07 12:51:17;;;;;;;21.10;14.00;;;;;;;5.73;75.64;99764.84;10086606;28;20046;-81
2020/12/07 12:56:14;;;;;;;19.80;12.63;;;;;;;5.72;75.20;99763.25;10088811;28;20142;-85
2020/12/07 13:01:11;;;;;;;19.00;12.48;;;;;;;5.70;75.09;99747.28;10099329;28;20062;-86
2020/12/07 13:06:07;;;;;;;19.90;12.90;;;;;;;5.79;75.00;99760.91;10087057;28;20492;-79
2020/12/07 13:11:03;;;;;;;22.08;12.25;;;;;;;5.87;74.99;99760.16;10086387;28;20051;-81
2020/12/07 13:16:03;;;;;;;16.08;10.57;;;;;;;5.72;75.06;99760.56;10094517;28;20043;-81
2020/12/07 13:21:07;;;;;;;14.10;10.20;;;;;;;5.73;75.12;99783.84;10083831;28;20130;-79
2020/12/07 13:26:17;;;;;;;13.35;8.65;;;;;;;5.67;75.03;99786.69;10082571;28;20138;-80
2020/12/07 13:31:16;;;;;;;11.30;7.82;;;;;;;5.67;75.07;99786.69;10073248;28;20141;-80
2020/12/07 13:36:16;;;;;;;10.52;7.22;;;;;;;5.68;75.09;99793.69;10090901;28;20423;-80
2020/12/07 13:41:13;;;;;;;11.35;6.20;;;;;;;5.61;74.48;99815.00;10090738;28;20058;-81
2020/12/07 13:46:16;;;;;;;10.48;6.95;;;;;;;5.62;75.01;99811.22;10077865;28;20106;-80
2020/12/07 13:51:18;;;;;;;9.85;6.63;;;;;;;5.70;75.57;99826.72;10086146;28;20083;-81
2020/12/07 13:56:14;;;;;;;10.30;7.25;;;;;;;5.63;75.67;99839.91;10079742;28;20145;-82
2020/12/07 14:01:13;;;;;;;9.55;7.10;;;;;;;5.49;75.56;99833.75;10102554;28;20162;-87
2020/12/07 14:06:10;;;;;;;11.32;8.15;;;;;;;5.59;75.53;99822.69;10090202;28;20130;-81
2020/12/07 14:11:06;;;;;;;10.77;7.85;;;;;;;5.66;75.93;99838.50;10098265;28;20393;-80
2020/12/07 14:16:03;;;;;;;10.07;7.38;;;;;;;5.80;75.51;99850.13;10101052;28;20487;-81
2020/12/07 14:21:11;;;;;;;11.43;8.48;;;;;;;5.76;75.66;99864.63;10094312;28;20054;-80
2020/12/07 14:26:23;;;;;;;10.98;7.30;;;;;;;5.57;75.59;99871.00;10102290;28;20054;-80
2020/12/07 14:41:31;;;;;;;9.98;7.22;;;;;;;5.61;75.44;99895.56;10114048;28;20061;-81
2020/12/07 14:46:30;;;;;;;9.27;6.50;;;;;;;5.69;75.15;99905.72;10097400;28;20051;-81
2020/12/07 14:51:37;;;;;;;10.32;7.35;;;;;;;5.62;75.46;99908.84;10097809;28;20066;-81
2020/12/07 15:12:03;;;;;;;11.27;7.65;;;;;;;5.68;75.54;99945.56;10106520;28;20145;-81
2020/12/07 15:17:02;;;;;;;10.40;7.35;;;;;;;5.56;75.34;99953.44;10094692;28;20070;-81
2020/12/07 15:21:58;;;;;;;8.68;6.30;;;;;;;5.59;75.92;99954.72;10091100;28;20669;-81
2020/12/07 15:26:54;;;;;;;8.40;6.47;;;;;;;5.62;75.44;99968.50;10085035;28;20054;-83
2020/12/07 15:31:54;;;;;;;9.48;6.30;;;;;;;5.59;75.52;99979.97;10094048;28;20050;-80
2020/12/07 15:36:51;;;;;;;8.82;6.38;;;;;;;5.61;75.37;99996.72;10094426;28;20083;-83
2020/12/07 15:41:47;;;;;;;9.60;6.75;;;;;;;5.66;75.52;100007.47;10077845;28;20058;-76
2020/12/07 15:46:44;;;;;;;10.02;6.93;;;;;;;5.64;75.29;100015.13;10090663;28;20051;-75
2020/12/07 15:51:40;;;;;;;9.73;7.05;;;;;;;5.77;75.41;100018.13;10078713;28;20066;-76
2020/12/07 15:56:36;;;;;;;8.35;6.50;;;;;;;5.74;75.40;100014.09;10077037;28;20551;-77
2020/12/07 16:01:32;;;;;;;9.23;6.32;;;;;;;5.72;75.58;100034.50;10076589;28;20066;-77
2020/12/07 16:06:29;;;;;;;8.00;5.68;;;;;;;5.68;75.37;100047.84;10100923;28;20055;-81
2020/12/07 16:11:25;;;;;;;9.30;5.35;;;;;;;5.73;75.42;100055.88;10088572;28;20094;-78
2020/12/07 16:16:21;;;;;;;7.38;5.18;;;;;;;5.70;75.28;100064.63;10080584;28;20134;-77
2020/12/07 16:21:18;;;;;;;8.50;5.60;;;;;;;5.70;75.43;100057.28;10103691;28;20079;-83
2020/12/07 16:26:14;;;;;;;7.20;4.55;;;;;;;5.60;75.67;100072.97;10079069;28;20051;-83
2020/12/07 16:31:10;;;;;;;9.07;5.40;;;;;;;5.68;75.47;100081.19;10097892;28;20061;-80
2020/12/07 16:36:08;;;;;;;8.02;5.38;;;;;;;5.80;75.16;100079.91;10082384;28;20050;-81
2020/12/07 16:41:05;;;;;;;8.40;5.25;;;;;;;5.72;75.30;100075.19;10085419;28;20054;-80
2020/12/07 16:46:04;;;;;;;8.90;5.32;;;;;;;5.66;75.34;100083.44;10087078;28;20051;-81
2020/12/07 16:51:01;;;;;;;6.85;5.20;;;;;;;5.70;74.85;100078.97;10088429;28;20057;-82
2020/12/07 16:55:57;;;;;;;6.70;4.20;;;;;;;5.66;75.21;100091.56;10087393;28;20101;-82
2020/12/07 17:00:54;;;;;;;6.07;4.45;;;;;;;5.67;74.93;100100.50;10090508;28;20058;-80
2020/12/07 17:05:54;;;;;;;6.38;4.20;;;;;;;5.60;74.99;100106.31;10086226;28;20075;-80
2020/12/07 17:10:51;;;;;;;7.22;4.32;;;;;;;5.54;75.12;100123.78;10093513;28;20225;-81
2020/12/07 17:15:55;;;;;;;8.00;4.75;;;;;;;5.61;74.68;100128.81;10087759;28;20073;-87
2020/12/07 17:20:57;;;;;;;6.97;4.35;;;;;;;5.66;74.88;100132.25;10094792;28;20054;-80
2020/12/07 17:25:54;;;;;;;11.10;5.70;;;;;;;5.61;75.51;100145.88;10090102;28;20479;-81
2020/12/07 17:30:50;;;;;;;8.68;5.93;;;;;;;5.66;74.86;100163.97;10080296;28;20164;-82
2020/12/07 17:35:46;;;;;;;8.45;6.05;;;;;;;5.64;74.73;100166.16;10078727;28;20145;-84
2020/12/07 17:40:43;;;;;;;8.38;5.97;;;;;;;5.61;75.06;100173.00;10081043;28;20066;-83
2020/12/07 17:45:39;;;;;;;10.20;7.18;;;;;;;5.64;74.44;100161.56;10084840;28;20046;-84
2020/12/07 17:50:39;;;;;;;9.25;6.97;;;;;;;5.55;74.39;100179.63;10084176;28;20558;-83
2020/12/07 17:55:35;;;;;;;11.98;8.30;;;;;;;5.62;74.75;100169.19;10075794;28;20047;-84
2020/12/07 18:00:31;;;;;;;8.93;7.38;;;;;;;5.63;74.95;100173.50;10074211;28;20062;-84
2020/12/07 18:05:27;;;;;;;10.20;8.52;;;;;;;5.68;75.05;100184.25;10084956;28;20058;-80
2020/12/07 18:10:24;;;;;;;11.20;7.78;;;;;;;5.72;74.71;100194.53;10087640;28;20128;-83
2020/12/07 18:31:57;;;;;;;10.18;8.40;;;;;;;5.78;75.40;100231.31;12421401;23;20238;-79
2020/12/07 18:36:54;;;;;;;10.35;7.93;;;;;;;5.83;74.88;100245.59;10127196;28;20079;-80
2020/12/07 18:41:54;;;;;;;9.93;8.00;;;;;;;5.73;75.42;100250.38;10062351;28;20064;-81
2020/12/07 19:02:40;;;;;;;10.18;7.53;;;;;;;5.82;74.98;100262.16;10522631;23;20712;-77
2020/12/07 19:07:36;;;;;;;9.15;7.78;;;;;;;5.83;74.81;100256.47;10086473;28;20043;-78
2020/12/07 19:12:42;;;;;;;9.18;7.40;;;;;;;5.73;74.75;100261.22;10043219;28;20116;-79
2020/12/07 19:17:40;;;;;;;10.00;8.43;;;;;;;5.94;74.97;100273.41;10056366;28;20055;-79
2020/12/07 19:22:37;;;;;;;11.52;8.00;;;;;;;5.79;75.23;100281.75;10064453;28;20416;-82
2020/12/07 19:27:49;;;;;;;9.95;7.05;;;;;;;5.84;75.00;100285.19;10051725;28;20051;-78
2020/12/07 19:32:46;;;;;;;8.75;7.68;;;;;;;5.82;75.73;100292.00;10045955;28;20523;-79
2020/12/07 19:37:43;;;;;;;9.45;8.23;;;;;;;5.83;76.25;100293.63;10066752;28;20062;-77
2020/12/07 19:42:39;;;;;;;9.95;8.43;;;;;;;5.68;77.08;100303.59;10044588;28;20516;-78
2020/12/07 19:47:38;;;;;;;11.63;8.90;;;;;;;5.73;77.09;100310.06;10071186;28;20086;-82
2020/12/07 19:52:35;;;;;;;9.43;7.72;;;;;;;5.72;77.09;100294.91;10047819;28;20043;-78
2020/12/07 19:57:36;;;;;;;9.75;7.55;;;;;;;5.77;77.10;100317.31;10055534;28;20063;-77
2020/12/07 20:02:33;;;;;;;10.13;7.22;;;;;;;5.79;77.30;100319.75;10045186;28;20055;-78
2020/12/07 20:07:30;;;;;;;8.77;6.38;;;;;;;5.80;77.12;100338.44;10052970;28;20055;-77
2020/12/07 20:12:28;;;;;;;9.93;5.70;;;;;;;5.78;77.07;100342.53;10047383;28;20064;-77
2020/12/07 20:17:28;;;;;;;8.32;6.40;;;;;;;5.80;77.30;100343.88;10061966;28;20066;-78
2020/12/07 20:22:33;;;;;;;10.27;6.70;;;;;;;5.70;76.72;100339.38;10040578;28;20055;-77
2020/12/07 20:27:29;;;;;;;8.57;6.28;;;;;;;5.72;76.76;100341.00;10050417;28;20427;-77
2020/12/07 20:32:29;;;;;;;10.02;6.22;;;;;;;5.68;76.78;100341.59;10064509;28;20055;-77
2020/12/07 20:37:26;;;;;;;10.20;7.18;;;;;;;5.62;77.82;100337.34;10060465;29;20077;-78
2020/12/07 20:42:22;;;;;;;8.25;6.35;;;;;;;5.66;77.96;100343.81;10047944;28;20507;-81
2020/12/07 20:47:19;;;;;;;12.88;7.53;;;;;;;5.68;77.75;100351.63;10075942;28;20456;-78
2020/12/07 20:52:15;;;;;;;11.98;7.60;;;;;;;5.74;77.75;100363.22;10039959;28;20110;-76
2020/12/07 20:57:11;;;;;;;10.25;7.97;;;;;;;5.72;77.34;100362.72;10046843;28;20082;-76
2020/12/07 21:02:08;;;;;;;9.45;7.20;;;;;;;5.81;77.29;100355.53;10040172;28;20058;-76
2020/12/07 21:07:04;;;;;;;8.95;6.78;;;;;;;5.86;77.34;100358.16;10039084;28;20086;-77
2020/12/07 21:12:01;;;;;;;9.32;6.68;;;;;;;5.89;77.19;100371.13;10044955;28;20507;-79
2020/12/07 21:16:57;;;;;;;11.23;7.72;;;;;;;5.91;76.98;100361.59;10078350;28;20114;-80
2020/12/07 21:21:53;;;;;;;10.55;7.22;;;;;;;5.94;77.42;100375.66;10031100;28;20050;-81
2020/12/07 21:26:53;;;;;;;10.07;7.05;;;;;;;5.93;77.24;100363.22;10035339;28;20063;-81
2020/12/07 21:31:54;;;;;;;9.15;7.50;;;;;;;5.90;77.47;100354.56;10041762;29;20138;-78
2020/12/07 21:36:50;;;;;;;9.40;6.45;;;;;;;5.97;76.57;100359.66;10053118;28;20074;-79
2020/12/07 21:41:46;;;;;;;9.32;6.65;;;;;;;5.95;77.34;100372.69;10055325;28;20063;-79
2020/12/07 21:46:42;;;;;;;9.88;7.03;;;;;;;6.03;76.39;100374.72;10053164;29;20051;-77
2020/12/07 21:51:39;;;;;;;9.82;6.63;;;;;;;5.97;76.38;100381.34;10052614;28;20054;-75
2020/12/07 21:56:36;;;;;;;10.32;6.85;;;;;;;6.02;76.70;100389.41;10057820;28;20047;-78
2020/12/07 22:01:32;;;;;;;7.88;6.25;;;;;;;6.05;76.18;100388.00;10053759;28;20050;-78
2020/12/07 22:06:29;;;;;;;7.65;5.65;;;;;;;6.05;75.65;100394.25;10058426;28;20062;-77
2020/12/07 22:11:25;;;;;;;9.75;6.13;;;;;;;6.00;75.43;100397.03;10060478;28;20059;-78
2020/12/07 22:16:21;;;;;;;7.95;5.07;;;;;;;6.04;73.90;100392.66;10068282;29;20047;-78
2020/12/07 22:21:18;;;;;;;6.65;5.22;;;;;;;5.99;74.08;100406.28;10060430;28;20056;-78
2020/12/07 22:26:23;;;;;;;7.88;4.90;;;;;;;6.03;74.28;100410.00;10061492;29;20424;-79
2020/12/07 22:31:26;;;;;;;6.90;5.18;;;;;;;5.93;74.25;100418.28;10065541;28;20495;-75
2020/12/07 22:36:22;;;;;;;7.47;5.22;;;;;;;6.03;74.05;100423.59;10072507;28;20486;-75
2020/12/07 22:41:23;;;;;;;6.85;4.68;;;;;;;5.97;73.81;100430.22;10057707;28;20564;-77
2020/12/07 22:46:19;;;;;;;7.53;5.68;;;;;;;5.96;74.08;100423.16;10067221;28;20047;-79
2020/12/07 22:51:16;;;;;;;7.78;5.13;;;;;;;5.96;73.47;100425.88;10058685;28;20050;-76
2020/12/07 22:56:12;;;;;;;8.80;4.95;;;;;;;5.91;73.44;100426.72;10061053;28;20456;-78
2020/12/07 23:01:09;;;;;;;7.57;5.50;;;;;;;5.90;73.22;100429.75;10050660;28;20059;-75
2020/12/07 23:06:06;;;;;;;9.18;6.38;;;;;;;5.81;73.28;100437.72;10072143;28;20560;-75
2020/12/07 23:11:04;;;;;;;8.35;5.90;;;;;;;5.82;73.70;100436.59;10063251;29;20059;-75
2020/12/07 23:16:00;;;;;;;7.35;5.43;;;;;;;5.86;73.68;100439.56;10066578;28;20057;-75
2020/12/07 23:20:57;;;;;;;7.43;5.60;;;;;;;5.84;73.71;100458.84;10064200;28;20058;-76
2020/12/07 23:25:54;;;;;;;8.07;5.63;;;;;;;5.87;74.01;100449.31;10070672;28;20051;-75
2020/12/07 23:30:50;;;;;;;7.07;5.13;;;;;;;5.87;74.00;100446.59;10058682;28;20125;-75
2020/12/07 23:35:46;;;;;;;7.90;5.28;;;;;;;5.89;73.66;100449.81;10057378;28;20134;-79
2020/12/07 23:40:42;;;;;;;8.70;5.38;;;;;;;5.88;73.74;100448.22;10061866;28;20074;-75
2020/12/07 23:45:38;;;;;;;7.93;5.15;;;;;;;5.88;74.05;100448.22;10054929;29;20051;-78
2020/12/07 23:50:35;;;;;;;6.93;5.00;;;;;;;5.86;74.57;100450.41;10055883;29;20106;-78
2020/12/07 23:55:31;;;;;;;6.80;4.88;;;;;;;5.89;73.94;100441.69;10059141;29;20063;-79
